Fleming Island, Florida
Current Conditions -  °F | °C
As of 3:53 AM on Sunday 26 Oct 2014 (Local Time) from KNIP Reporting Station
Clear Clear  
Wind Chill: 59°   Ceiling: Unl
Heat Index: 59°   Visibility: 10mi
Dew Point: 52°   Wind: 6mph
Humidity: 78%   Direction: 250°WSW
Pressure: 29.97"   Gusts: NA
Location:  30.1°N, 81.71°W
Report Text: KNIP 260753Z 25005KT 10SM CLR 15/11 A2997 RMK AO2 SLP145 T01500111
Loading
Personal Weather Stations






























Interactive Weather Map
Tropical Storm Tracking
New forecast layout! Learn more

10-Day Weather Forecast

Advertisements
Track Severe Weather on mobile